Time;durP1;ratioP1;P1;durP2;ratioP2;P2;SDS_P1;SDS_P2;PMS_P1;PMS_P2;Temp;Humidity;BMP_temperature;BMP_pressure;BME280_temperature;BME280_humidity;BME280_pressure;Samples;Min_cycle;Max_cycle;Signal;HPM_P1;HPM_P2
2022/01/08 00:02:20;;;;;;;1.67;1.50;;;1.40;99.90;;;;;;5046260;28;20041;-85
2022/01/08 00:04:46;;;;;;;1.60;1.23;;;1.40;99.90;;;;;;5062357;28;20048;-85
2022/01/08 00:07:12;;;;;;;2.25;1.85;;;1.40;99.90;;;;;;5044994;28;20090;-85
2022/01/08 00:09:37;;;;;;;1.80;1.70;;;1.30;99.90;;;;;;5058197;28;20021;-84
2022/01/08 00:12:03;;;;;;;2.40;2.05;;;1.30;99.90;;;;;;5040689;28;20124;-86
2022/01/08 00:14:30;;;;;;;2.17;1.60;;;1.20;99.90;;;;;;5041173;28;20091;-85
2022/01/08 00:16:55;;;;;;;3.03;1.70;;;1.20;99.90;;;;;;5059241;28;20048;-86
2022/01/08 00:19:21;;;;;;;2.25;1.58;;;1.10;99.90;;;;;;5078037;28;20017;-84
2022/01/08 00:21:47;;;;;;;2.75;1.58;;;1.10;99.90;;;;;;5053441;28;20013;-85
2022/01/08 00:24:12;;;;;;;3.30;1.65;;;1.10;99.90;;;;;;5058645;28;20025;-84
2022/01/08 00:26:38;;;;;;;1.50;1.40;;;1.10;99.90;;;;;;5041343;28;20128;-84
2022/01/08 00:29:04;;;;;;;1.80;1.63;;;1.00;99.90;;;;;;5041508;28;20024;-86
2022/01/08 00:31:29;;;;;;;1.48;1.23;;;1.00;99.90;;;;;;5040393;28;20123;-86
2022/01/08 00:33:55;;;;;;;2.80;1.48;;;0.90;99.90;;;;;;5040595;28;20051;-86
2022/01/08 00:36:21;;;;;;;1.70;1.45;;;0.90;99.90;;;;;;5058309;28;20025;-84
2022/01/08 00:38:47;;;;;;;1.35;1.25;;;0.80;99.90;;;;;;5051709;28;20486;-86
2022/01/08 00:41:12;;;;;;;2.38;1.90;;;0.70;99.90;;;;;;5038165;28;20103;-86
2022/01/08 00:43:38;;;;;;;2.10;1.90;;;0.70;99.90;;;;;;5020130;28;20021;-86
2022/01/08 00:46:04;;;;;;;1.73;1.60;;;0.60;99.90;;;;;;5020450;28;20025;-86
2022/01/08 00:48:30;;;;;;;2.58;2.00;;;0.60;99.90;;;;;;5037046;28;20580;-84
2022/01/08 00:50:56;;;;;;;4.80;1.80;;;0.60;99.90;;;;;;5041493;28;20029;-84
2022/01/08 00:53:22;;;;;;;2.50;1.95;;;0.60;99.90;;;;;;5069647;28;20073;-84
2022/01/08 00:55:47;;;;;;;3.42;1.65;;;0.60;99.90;;;;;;5059008;28;20025;-85
2022/01/08 00:58:13;;;;;;;3.05;1.55;;;0.60;99.90;;;;;;5057526;28;20100;-84
2022/01/08 01:00:41;;;;;;;1.77;1.23;;;0.70;99.90;;;;;;5039839;28;20042;-86
2022/01/08 01:03:08;;;;;;;1.67;1.52;;;0.70;99.90;;;;;;5039564;28;20024;-86
2022/01/08 01:05:34;;;;;;;2.00;1.80;;;0.70;99.90;;;;;;5039192;28;20025;-86
2022/01/08 01:08:00;;;;;;;2.15;1.35;;;0.60;99.90;;;;;;5038957;28;20028;-86
2022/01/08 01:10:26;;;;;;;2.83;1.52;;;0.60;99.90;;;;;;5057142;28;20086;-86
2022/01/08 01:12:51;;;;;;;2.30;1.60;;;0.60;99.90;;;;;;5057152;28;20524;-85
2022/01/08 01:15:18;;;;;;;3.95;1.67;;;0.60;99.90;;;;;;5067785;28;20017;-84
2022/01/08 01:17:45;;;;;;;2.30;1.45;;;0.50;99.90;;;;;;5059116;28;20028;-85
2022/01/08 01:20:13;;;;;;;2.95;1.40;;;0.50;99.90;;;;;;5039606;28;20459;-84
2022/01/08 01:23:04;;;;;;;1.95;1.58;;;0.50;99.90;;;;;;5045102;28;20025;-85
2022/01/08 01:25:38;;;;;;;2.33;1.35;;;0.40;99.90;;;;;;5037662;28;20013;-85
2022/01/08 01:28:34;;;;;;;2.92;1.73;;;0.40;99.90;;;;;;5019619;28;20065;-86
2022/01/08 01:47:15;;;;;;;1.33;1.20;;;0.20;99.90;;;;;;5057302;28;20033;-85
2022/01/08 01:49:43;;;;;;;2.08;1.45;;;0.20;99.90;;;;;;5038745;28;20131;-85
2022/01/08 01:52:14;;;;;;;2.47;1.63;;;0.20;99.90;;;;;;5057199;28;20025;-85
2022/01/08 01:54:41;;;;;;;1.45;1.33;;;0.10;99.90;;;;;;5039254;28;20021;-86
2022/01/08 01:57:08;;;;;;;1.65;1.48;;;0.00;99.90;;;;;;5038347;28;20028;-85
2022/01/08 01:59:36;;;;;;;3.00;1.30;;;0.00;99.90;;;;;;5045221;28;20140;-84
2022/01/08 02:02:03;;;;;;;2.90;1.40;;;-0.10;99.90;;;;;;5063688;28;20061;-86
2022/01/08 02:04:28;;;;;;;1.90;1.67;;;-0.10;99.90;;;;;;5058704;28;20014;-83
2022/01/08 02:06:54;;;;;;;2.13;1.77;;;-0.10;99.90;;;;;;5065586;28;20083;-88
2022/01/08 02:09:20;;;;;;;2.17;1.50;;;-0.10;99.90;;;;;;5039168;28;20052;-86
2022/01/08 02:11:59;;;;;;;2.90;1.73;;;-0.10;99.90;;;;;;5057077;28;20024;-86
2022/01/08 02:14:26;;;;;;;2.72;1.83;;;-0.10;99.90;;;;;;5039346;28;20036;-84
2022/01/08 02:16:52;;;;;;;1.85;1.33;;;-0.10;99.90;;;;;;5057332;28;20040;-85
2022/01/08 02:19:18;;;;;;;4.53;1.70;;;-0.20;99.90;;;;;;5039010;28;20076;-85
2022/01/08 02:21:55;;;;;;;1.33;1.17;;;-0.20;99.90;;;;;;5034875;28;20052;-84
2022/01/08 02:24:22;;;;;;;1.60;1.30;;;-0.20;99.90;;;;;;5036213;28;20498;-83
2022/01/08 02:26:48;;;;;;;1.48;1.23;;;-0.30;99.90;;;;;;5043106;28;20013;-85
2022/01/08 02:29:15;;;;;;;1.13;1.02;;;-0.30;99.90;;;;;;5060444;28;20433;-84
2022/01/08 02:31:51;;;;;;;2.08;1.33;;;-0.30;99.90;;;;;;5042320;28;20033;-82
2022/01/08 02:34:16;;;;;;;2.05;1.30;;;-0.30;99.90;;;;;;5042757;28;20035;-83
2022/01/08 02:36:42;;;;;;;3.40;1.52;;;-0.30;99.90;;;;;;5041629;28;20088;-86
2022/01/08 02:39:08;;;;;;;1.70;1.50;;;-0.30;99.90;;;;;;5070889;28;20021;-83
2022/01/08 02:41:34;;;;;;;2.53;1.33;;;-0.40;99.90;;;;;;5076066;28;20017;-85
2022/01/08 02:44:00;;;;;;;1.60;1.30;;;-0.40;99.90;;;;;;5075719;28;20022;-84
2022/01/08 02:46:28;;;;;;;2.10;1.40;;;-0.40;99.90;;;;;;5058795;28;20024;-83
2022/01/08 02:48:53;;;;;;;1.75;1.17;;;-0.50;99.90;;;;;;5075798;28;20021;-84
2022/01/08 02:51:19;;;;;;;3.58;1.63;;;-0.50;99.90;;;;;;5074494;28;20045;-84
2022/01/08 02:53:45;;;;;;;1.83;1.45;;;-0.60;99.90;;;;;;5068167;28;20009;-85
2022/01/08 02:56:11;;;;;;;2.30;1.70;;;-0.60;99.90;;;;;;5058600;28;20065;-86
2022/01/08 02:58:37;;;;;;;1.70;1.50;;;-0.70;99.90;;;;;;5038455;28;20097;-85
2022/01/08 03:01:03;;;;;;;1.80;1.20;;;-0.80;99.90;;;;;;5030038;28;20036;-86
2022/01/08 03:03:29;;;;;;;1.63;1.52;;;-0.80;99.90;;;;;;5056663;28;20022;-85
2022/01/08 03:05:54;;;;;;;1.70;1.27;;;-0.80;99.90;;;;;;5044386;28;20459;-85
2022/01/08 03:08:20;;;;;;;2.20;1.70;;;-0.80;99.90;;;;;;5039657;28;20033;-84
2022/01/08 03:10:46;;;;;;;2.53;1.58;;;-0.80;99.90;;;;;;5057216;28;20030;-85
2022/01/08 03:13:12;;;;;;;1.95;1.58;;;-0.80;99.90;;;;;;5039564;28;20020;-86
2022/01/08 03:15:39;;;;;;;2.08;1.73;;;-0.80;99.90;;;;;;5059842;28;20033;-85
2022/01/08 03:18:06;;;;;;;1.70;1.60;;;-0.90;99.90;;;;;;5059397;28;20032;-83
2022/01/08 03:20:35;;;;;;;2.28;1.70;;;-0.90;99.90;;;;;;5056339;28;20390;-86
2022/01/08 03:23:04;;;;;;;2.20;1.88;;;-0.90;99.90;;;;;;5038672;28;20029;-85
2022/01/08 03:25:30;;;;;;;4.07;1.70;;;-1.00;99.90;;;;;;5044208;28;20052;-86
2022/01/08 03:27:57;;;;;;;3.55;2.00;;;-1.00;99.90;;;;;;5057949;28;20021;-83
2022/01/08 03:30:24;;;;;;;1.73;1.63;;;-1.00;99.90;;;;;;5056896;28;20040;-85
2022/01/08 03:32:52;;;;;;;3.45;1.48;;;-1.00;99.90;;;;;;5063001;28;20032;-84
2022/01/08 03:35:18;;;;;;;2.17;1.83;;;-1.10;99.90;;;;;;5060281;28;20031;-85
2022/01/08 03:37:44;;;;;;;1.65;1.40;;;-1.10;99.90;;;;;;5041829;28;20035;-85
2022/01/08 03:40:20;;;;;;;2.38;1.80;;;-1.10;99.90;;;;;;5042782;28;20123;-84
2022/01/08 03:42:46;;;;;;;3.42;2.03;;;-1.10;99.90;;;;;;5060124;28;20478;-85
2022/01/08 03:45:12;;;;;;;2.78;2.10;;;-1.10;99.90;;;;;;5060337;28;20060;-86
2022/01/08 03:50:21;;;;;;;1.52;1.35;;;-1.20;99.90;;;;;;5062139;28;20037;-85
2022/01/08 03:52:47;;;;;;;2.08;1.70;;;-1.20;99.90;;;;;;5064414;28;20371;-84
2022/01/08 03:55:13;;;;;;;2.33;1.80;;;-1.20;99.90;;;;;;5042987;28;20058;-85
2022/01/08 03:57:38;;;;;;;1.77;1.52;;;-1.20;99.90;;;;;;5059702;28;20033;-85
2022/01/08 04:00:05;;;;;;;2.33;1.65;;;-1.20;99.90;;;;;;5042071;28;20478;-85
2022/01/08 04:02:31;;;;;;;1.40;1.30;;;-1.20;99.90;;;;;;5059791;28;20031;-84
2022/01/08 04:04:57;;;;;;;2.70;1.85;;;-1.20;99.90;;;;;;5059794;28;20460;-85
2022/01/08 04:07:22;;;;;;;2.15;1.42;;;-1.20;99.90;;;;;;5060160;28;20013;-85
2022/01/08 04:09:48;;;;;;;3.13;1.13;;;-1.20;99.90;;;;;;5059856;28;20037;-84
2022/01/08 04:12:27;;;;;;;2.17;1.55;;;-1.20;99.90;;;;;;5059316;28;20029;-85
2022/01/08 04:15:04;;;;;;;2.03;1.45;;;-1.10;99.90;;;;;;5059765;28;20073;-85
2022/01/08 04:17:30;;;;;;;1.90;1.50;;;-1.00;99.90;;;;;;5042117;28;20044;-85
2022/01/08 04:19:56;;;;;;;1.50;1.20;;;-1.00;99.90;;;;;;5058503;28;20705;-85
2022/01/08 04:22:23;;;;;;;1.42;1.20;;;-1.00;99.90;;;;;;5022244;28;20135;-84
2022/01/08 04:24:50;;;;;;;2.25;1.00;;;-1.00;99.90;;;;;;5021139;28;20041;-85
2022/01/08 04:27:15;;;;;;;1.35;1.25;;;-1.00;99.90;;;;;;5021816;28;20034;-84
2022/01/08 04:29:41;;;;;;;1.05;0.95;;;-1.00;99.90;;;;;;5021945;28;20044;-85
2022/01/08 04:32:07;;;;;;;2.60;1.17;;;-1.00;99.90;;;;;;5034246;28;20121;-84
2022/01/08 04:34:33;;;;;;;1.00;0.80;;;-1.00;99.90;;;;;;5057941;28;20017;-84
2022/01/08 04:36:59;;;;;;;1.25;1.10;;;-0.90;99.90;;;;;;5046454;28;20120;-84
2022/01/08 04:39:26;;;;;;;1.70;0.75;;;-0.90;99.90;;;;;;5059202;28;20029;-85
2022/01/08 04:41:51;;;;;;;1.00;0.90;;;-0.90;99.90;;;;;;5041036;28;20477;-85
2022/01/08 04:44:18;;;;;;;0.77;0.68;;;-0.90;99.90;;;;;;5042665;28;20034;-85
2022/01/08 04:46:43;;;;;;;0.88;0.80;;;-0.90;99.90;;;;;;5041897;28;20017;-84
2022/01/08 04:49:10;;;;;;;2.05;0.85;;;-0.90;99.90;;;;;;5042127;28;20414;-85
2022/01/08 04:51:36;;;;;;;1.05;0.68;;;-0.90;99.90;;;;;;5056612;28;20139;-85
2022/01/08 04:54:01;;;;;;;1.58;1.00;;;-0.90;99.90;;;;;;5054547;28;20473;-85
2022/01/08 04:56:27;;;;;;;1.48;0.90;;;-0.90;99.90;;;;;;5058507;28;20029;-85
2022/01/08 04:58:53;;;;;;;1.92;0.70;;;-0.80;99.90;;;;;;5040601;28;20029;-85
2022/01/08 05:01:19;;;;;;;1.48;0.57;;;-0.80;99.90;;;;;;5040241;28;20039;-84
2022/01/08 05:03:45;;;;;;;0.52;0.38;;;-0.70;99.90;;;;;;5039531;28;20481;-85
2022/01/08 05:06:11;;;;;;;0.85;0.65;;;-0.60;99.90;;;;;;5058333;28;20277;-84
2022/01/08 05:08:37;;;;;;;0.60;0.60;;;-0.60;99.90;;;;;;5040676;28;20029;-84
2022/01/08 05:11:03;;;;;;;0.98;0.60;;;-0.50;99.90;;;;;;5057816;28;20063;-84
2022/01/08 05:13:28;;;;;;;1.02;0.73;;;-0.40;99.90;;;;;;5058323;28;20108;-85
2022/01/08 05:15:55;;;;;;;0.60;0.60;;;-0.40;99.90;;;;;;5040402;28;20024;-85
2022/01/08 05:18:24;;;;;;;0.75;0.70;;;-0.30;99.90;;;;;;5039906;28;20053;-84
2022/01/08 05:21:05;;;;;;;0.52;0.52;;;-0.20;99.90;;;;;;5040578;28;20029;-84
2022/01/08 05:23:30;;;;;;;1.13;0.60;;;-0.10;99.90;;;;;;5048591;28;20049;-84
2022/01/08 05:25:56;;;;;;;2.17;0.50;;;0.00;99.90;;;;;;5052343;28;20021;-83
2022/01/08 05:28:22;;;;;;;1.23;0.90;;;0.10;99.90;;;;;;5056407;28;20025;-83
2022/01/08 05:30:47;;;;;;;1.08;0.70;;;0.20;99.90;;;;;;5055687;28;20025;-84
2022/01/08 05:33:13;;;;;;;1.42;0.85;;;0.20;99.90;;;;;;5054444;28;20039;-84
2022/01/08 05:35:39;;;;;;;0.65;0.60;;;0.20;99.90;;;;;;5057054;28;20025;-83
2022/01/08 05:38:05;;;;;;;0.65;0.60;;;0.30;99.90;;;;;;5059448;28;20029;-85
2022/01/08 05:40:30;;;;;;;0.95;0.60;;;0.30;99.90;;;;;;5059646;28;20040;-85
2022/01/08 05:42:56;;;;;;;1.17;0.40;;;0.30;99.90;;;;;;5077202;28;20028;-85
2022/01/08 05:45:22;;;;;;;0.70;0.65;;;0.40;99.90;;;;;;5077166;28;20044;-84
2022/01/08 05:47:47;;;;;;;0.57;0.40;;;0.40;99.90;;;;;;5060315;28;20036;-84
2022/01/08 05:50:13;;;;;;;0.70;0.35;;;0.40;99.90;;;;;;5059132;28;20077;-84
2022/01/08 05:52:39;;;;;;;1.20;0.43;;;0.40;99.90;;;;;;5068274;28;20017;-84
2022/01/08 05:55:06;;;;;;;0.73;0.40;;;0.40;99.90;;;;;;5059312;28;20005;-84
2022/01/08 05:57:31;;;;;;;0.85;0.40;;;0.50;99.90;;;;;;5076085;28;20028;-84
2022/01/08 05:59:57;;;;;;;0.30;0.28;;;0.50;99.90;;;;;;5076664;28;20024;-84
2022/01/08 06:02:23;;;;;;;0.52;0.50;;;0.50;99.90;;;;;;5060256;28;20032;-85
2022/01/08 06:04:48;;;;;;;0.80;0.43;;;0.60;99.90;;;;;;5041422;28;20104;-85
2022/01/08 06:07:14;;;;;;;0.30;0.30;;;0.60;99.90;;;;;;5045777;28;20096;-85
2022/01/08 06:09:40;;;;;;;0.50;0.50;;;0.70;99.90;;;;;;5040332;28;20021;-84
2022/01/08 06:12:06;;;;;;;0.40;0.40;;;0.70;99.90;;;;;;5058393;28;20478;-84
2022/01/08 06:14:32;;;;;;;0.60;0.50;;;0.70;99.90;;;;;;5071084;28;20092;-84
2022/01/08 06:16:57;;;;;;;0.68;0.40;;;0.70;99.90;;;;;;5057013;28;20025;-84
2022/01/08 06:19:23;;;;;;;0.77;0.50;;;0.70;99.90;;;;;;5029663;28;20045;-85
2022/01/08 06:21:49;;;;;;;0.85;0.32;;;0.70;99.90;;;;;;5057739;28;20027;-85
2022/01/08 06:24:15;;;;;;;1.15;0.40;;;0.70;99.90;;;;;;5057803;28;20016;-84
2022/01/08 06:26:40;;;;;;;0.75;0.40;;;0.70;99.90;;;;;;5057630;28;20497;-85
2022/01/08 06:29:06;;;;;;;0.55;0.40;;;0.80;99.90;;;;;;5050967;28;20017;-85
2022/01/08 06:31:32;;;;;;;1.63;0.40;;;0.80;99.90;;;;;;5057226;28;20036;-85
2022/01/08 06:33:57;;;;;;;0.30;0.22;;;0.80;99.90;;;;;;5038344;28;20389;-85
2022/01/08 06:36:23;;;;;;;0.57;0.50;;;0.80;99.90;;;;;;5056998;28;20032;-85
2022/01/08 06:38:50;;;;;;;0.63;0.20;;;0.80;99.90;;;;;;5056177;28;20033;-85
2022/01/08 06:41:16;;;;;;;0.32;0.30;;;0.90;99.90;;;;;;5039546;28;20029;-85
2022/01/08 06:43:43;;;;;;;1.33;0.50;;;0.90;99.90;;;;;;5039254;28;20108;-85
2022/01/08 06:46:08;;;;;;;0.40;0.40;;;0.90;99.90;;;;;;5056775;28;20036;-85
2022/01/08 06:48:34;;;;;;;0.30;0.30;;;0.90;99.90;;;;;;5039571;28;20033;-85
2022/01/08 06:51:00;;;;;;;0.30;0.30;;;1.00;99.90;;;;;;5061198;28;20128;-85
2022/01/08 06:53:26;;;;;;;0.93;0.50;;;1.00;99.90;;;;;;5061039;28;20085;-85
2022/01/08 06:55:51;;;;;;;0.20;0.20;;;1.00;99.90;;;;;;5043536;28;20040;-84
2022/01/08 06:58:20;;;;;;;0.57;0.20;;;1.00;99.90;;;;;;5061179;28;20543;-85
2022/01/08 07:00:45;;;;;;;0.95;0.20;;;1.00;99.90;;;;;;5059824;28;20040;-85
2022/01/08 07:03:11;;;;;;;0.20;0.20;;;1.00;99.90;;;;;;5060568;28;20028;-84
2022/01/08 07:05:38;;;;;;;2.63;0.30;;;1.10;99.90;;;;;;5061460;28;20557;-84
2022/01/08 07:08:04;;;;;;;0.73;0.28;;;1.10;99.90;;;;;;5042843;28;20035;-84
2022/01/08 07:10:30;;;;;;;1.70;0.25;;;1.20;99.90;;;;;;5060979;28;20013;-84
2022/01/08 07:12:56;;;;;;;0.55;0.35;;;1.20;99.90;;;;;;5059090;28;20119;-84
2022/01/08 07:15:22;;;;;;;0.45;0.30;;;1.20;99.90;;;;;;5060498;28;20063;-84
2022/01/08 07:17:48;;;;;;;0.20;0.20;;;1.20;99.90;;;;;;5059019;28;20040;-84
2022/01/08 07:20:14;;;;;;;0.30;0.30;;;1.30;99.90;;;;;;5025790;28;20025;-85
2022/01/08 07:22:40;;;;;;;0.28;0.25;;;1.30;99.90;;;;;;5045006;28;20029;-84
2022/01/08 07:25:07;;;;;;;0.38;0.30;;;1.30;99.90;;;;;;5044604;28;20133;-84
2022/01/08 07:27:33;;;;;;;0.10;0.10;;;1.30;99.90;;;;;;5026336;28;20029;-84
2022/01/08 07:30:00;;;;;;;0.80;0.40;;;1.30;99.90;;;;;;5055173;28;20111;-84
2022/01/08 07:32:27;;;;;;;0.98;0.32;;;1.30;99.90;;;;;;5060458;28;20032;-84
2022/01/08 07:34:53;;;;;;;0.30;0.30;;;1.40;99.90;;;;;;5043229;28;20017;-84
2022/01/08 07:37:19;;;;;;;1.20;0.50;;;1.50;99.90;;;;;;5043283;28;20033;-84
2022/01/08 07:39:45;;;;;;;0.60;0.40;;;1.60;99.90;;;;;;5076134;28;20084;-84
2022/01/08 07:42:10;;;;;;;0.63;0.38;;;1.60;99.90;;;;;;5053984;28;20037;-84
2022/01/08 07:44:36;;;;;;;0.93;0.30;;;1.70;99.90;;;;;;5046438;28;20029;-84
2022/01/08 07:47:02;;;;;;;1.45;0.40;;;1.70;99.90;;;;;;5053284;28;20017;-84
2022/01/08 07:49:28;;;;;;;1.00;0.20;;;1.70;99.90;;;;;;5047171;28;20398;-85
2022/01/08 07:51:54;;;;;;;0.52;0.20;;;1.70;99.90;;;;;;5039819;28;20037;-84
2022/01/08 07:54:19;;;;;;;1.75;0.52;;;1.70;99.90;;;;;;5040329;28;20026;-84
2022/01/08 07:56:45;;;;;;;0.57;0.43;;;1.70;99.90;;;;;;5022160;28;20036;-84
2022/01/08 07:59:11;;;;;;;0.63;0.35;;;1.70;99.90;;;;;;5037979;28;20025;-84
2022/01/08 08:01:36;;;;;;;2.50;0.45;;;1.70;99.90;;;;;;5019573;28;20030;-83
2022/01/08 08:04:03;;;;;;;1.50;0.47;;;1.70;99.90;;;;;;5042010;28;20405;-83
2022/01/08 08:06:29;;;;;;;1.13;0.38;;;1.70;99.90;;;;;;5040519;28;20029;-84
2022/01/08 08:08:54;;;;;;;1.67;0.30;;;1.70;99.90;;;;;;5058440;28;20029;-84
2022/01/08 08:11:20;;;;;;;0.47;0.22;;;1.70;99.90;;;;;;5040345;28;20036;-84
2022/01/08 08:13:46;;;;;;;0.60;0.30;;;1.70;99.90;;;;;;5058178;28;20025;-84
2022/01/08 08:16:11;;;;;;;0.80;0.40;;;1.70;99.90;;;;;;5040348;28;20016;-84
2022/01/08 08:18:37;;;;;;;0.47;0.30;;;1.60;99.90;;;;;;5049990;28;20052;-84
2022/01/08 08:21:03;;;;;;;1.05;0.30;;;1.60;99.90;;;;;;5057741;28;20035;-86
2022/01/08 08:23:28;;;;;;;0.40;0.40;;;1.60;99.90;;;;;;5058463;28;20100;-84
2022/01/08 08:25:54;;;;;;;2.53;0.55;;;1.60;99.90;;;;;;5040284;28;20555;-84
2022/01/08 08:28:20;;;;;;;0.43;0.40;;;1.60;99.90;;;;;;5058438;28;20025;-84
2022/01/08 08:30:46;;;;;;;1.92;0.50;;;1.60;99.90;;;;;;5058835;28;20037;-84
2022/01/08 08:33:12;;;;;;;0.45;0.30;;;1.60;99.90;;;;;;5041303;28;20029;-85
2022/01/08 08:35:38;;;;;;;0.45;0.45;;;1.70;99.90;;;;;;5061666;28;20017;-84
2022/01/08 08:38:04;;;;;;;1.75;0.77;;;1.80;99.90;;;;;;5059158;28;20036;-84
2022/01/08 08:40:30;;;;;;;0.52;0.30;;;1.90;99.90;;;;;;5059296;28;20037;-84
2022/01/08 08:42:56;;;;;;;1.02;0.63;;;2.00;99.90;;;;;;5057366;28;20025;-84
2022/01/08 08:45:22;;;;;;;1.10;0.50;;;2.10;99.90;;;;;;5058010;28;20040;-84
2022/01/08 08:47:49;;;;;;;0.40;0.40;;;2.20;99.90;;;;;;5052942;28;20013;-84
2022/01/08 08:50:15;;;;;;;0.65;0.20;;;2.20;99.90;;;;;;5039756;28;20044;-84
2022/01/08 08:52:41;;;;;;;0.40;0.38;;;2.30;99.90;;;;;;5060606;28;20089;-84
2022/01/08 08:55:08;;;;;;;0.30;0.30;;;2.40;99.90;;;;;;5063875;28;20079;-84
2022/01/08 08:57:34;;;;;;;0.80;0.60;;;2.40;99.90;;;;;;5068645;28;20464;-84
2022/01/08 09:00:00;;;;;;;0.40;0.40;;;2.40;99.90;;;;;;5070224;28;20028;-84
2022/01/08 09:02:25;;;;;;;0.65;0.22;;;2.40;99.90;;;;;;5068951;28;20083;-85
2022/01/08 09:04:51;;;;;;;0.47;0.20;;;2.50;99.90;;;;;;5058945;28;20040;-85
2022/01/08 09:07:18;;;;;;;0.63;0.25;;;2.60;99.90;;;;;;5058421;28;20028;-85
2022/01/08 09:09:44;;;;;;;1.15;0.30;;;2.70;99.90;;;;;;5040081;28;20028;-84
2022/01/08 09:12:14;;;;;;;0.10;0.10;;;2.70;99.90;;;;;;5057257;28;20040;-84
2022/01/08 09:14:40;;;;;;;0.60;0.25;;;2.80;99.90;;;;;;5039975;28;20056;-85
2022/01/08 09:17:05;;;;;;;0.22;0.20;;;2.70;99.90;;;;;;5056706;28;20025;-85
2022/01/08 09:19:32;;;;;;;0.30;0.30;;;2.70;99.90;;;;;;5019995;28;20036;-85
2022/01/08 09:21:58;;;;;;;0.50;0.30;;;2.70;99.90;;;;;;5036529;28;20033;-85
2022/01/08 09:24:24;;;;;;;0.75;0.20;;;2.80;99.90;;;;;;5036592;28;20079;-85
2022/01/08 09:26:50;;;;;;;0.20;0.10;;;2.90;99.90;;;;;;5036533;28;20033;-85
2022/01/08 09:29:16;;;;;;;0.75;0.45;;;3.10;99.90;;;;;;5019462;28;20065;-85
2022/01/08 09:31:42;;;;;;;0.85;0.22;;;3.20;99.90;;;;;;5056341;28;20804;-84
2022/01/08 09:34:08;;;;;;;0.65;0.22;;;3.20;99.90;;;;;;5039390;28;20017;-85
2022/01/08 09:36:34;;;;;;;0.35;0.30;;;3.10;99.90;;;;;;5057578;28;20465;-86
2022/01/08 09:39:00;;;;;;;0.38;0.30;;;3.10;99.70;;;;;;5057826;28;20159;-85
2022/01/08 09:41:26;;;;;;;0.60;0.20;;;3.00;99.60;;;;;;5040570;28;20159;-84
2022/01/08 09:43:52;;;;;;;0.80;0.38;;;3.00;99.40;;;;;;5047160;28;20044;-84
2022/01/08 09:46:21;;;;;;;0.13;0.13;;;2.80;99.00;;;;;;5076928;28;20024;-84
2022/01/08 09:48:48;;;;;;;0.22;0.20;;;2.70;99.30;;;;;;5051006;28;20036;-85
2022/01/08 09:51:15;;;;;;;0.85;0.35;;;2.70;99.10;;;;;;5096149;22;20049;-82
2022/01/08 09:53:43;;;;;;;0.60;0.40;;;2.60;99.20;;;;;;5034869;28;20036;-85
2022/01/08 09:56:09;;;;;;;0.40;0.32;;;2.50;99.50;;;;;;5054209;28;20030;-81
2022/01/08 09:58:35;;;;;;;0.20;0.20;;;2.50;99.20;;;;;;5053840;28;20181;-82
2022/01/08 10:01:01;;;;;;;0.68;0.30;;;2.40;99.50;;;;;;5044246;28;20049;-81
2022/01/08 10:03:31;;;;;;;0.65;0.40;;;2.50;98.80;;;;;;5052721;28;20036;-80
2022/01/08 10:06:01;;;;;;;0.20;0.20;;;2.40;99.30;;;;;;5036296;28;20022;-83
2022/01/08 10:08:29;;;;;;;0.43;0.40;;;2.40;98.50;;;;;;5036835;28;20029;-84
2022/01/08 10:11:00;;;;;;;1.00;0.20;;;2.40;98.00;;;;;;5051616;28;20028;-83
2022/01/08 10:13:33;;;;;;;1.10;0.40;;;2.40;97.80;;;;;;5049557;28;20025;-80
2022/01/08 10:18:49;;;;;;;0.38;0.30;;;2.50;97.50;;;;;;5045575;28;20033;-83
2022/01/08 10:21:26;;;;;;;2.30;0.40;;;2.60;97.30;;;;;;5042422;28;20037;-81
2022/01/08 10:23:54;;;;;;;3.17;0.52;;;2.70;96.60;;;;;;5024935;28;20033;-81
2022/01/08 10:26:22;;;;;;;0.63;0.40;;;2.80;96.10;;;;;;5041756;28;20021;-82
2022/01/08 10:28:49;;;;;;;0.38;0.30;;;2.90;95.90;;;;;;5041163;28;20026;-82
2022/01/08 10:31:16;;;;;;;1.48;0.30;;;2.90;95.80;;;;;;5040654;28;20508;-82
2022/01/08 10:33:45;;;;;;;0.30;0.30;;;3.00;95.20;;;;;;5023576;28;20025;-81
2022/01/08 10:36:12;;;;;;;0.40;0.40;;;3.00;94.70;;;;;;5048533;28;20025;-83
2022/01/08 10:38:38;;;;;;;0.50;0.50;;;3.00;95.30;;;;;;5026882;28;20021;-80
2022/01/08 10:41:12;;;;;;;1.27;0.40;;;3.00;94.60;;;;;;5044357;28;20172;-82
2022/01/08 10:43:38;;;;;;;0.30;0.30;;;3.00;94.80;;;;;;5043384;28;20082;-82
2022/01/08 10:46:19;;;;;;;1.88;0.68;;;3.10;94.60;;;;;;5023059;28;20104;-81
2022/01/08 10:48:50;;;;;;;0.60;0.50;;;3.20;94.00;;;;;;5020420;28;20124;-80
2022/01/08 10:51:18;;;;;;;1.45;0.60;;;3.30;93.70;;;;;;5025894;28;20025;-82
2022/01/08 10:53:52;;;;;;;0.70;0.60;;;3.30;94.00;;;;;;5040704;28;20024;-81
2022/01/08 10:56:34;;;;;;;0.63;0.63;;;3.40;93.70;;;;;;5024603;28;20026;-81
2022/01/08 10:59:04;;;;;;;2.38;0.57;;;3.70;93.40;;;;;;5039120;28;20462;-82
2022/01/08 11:01:53;;;;;;;0.60;0.50;;;4.00;92.00;;;;;;5041470;28;20026;-82
2022/01/08 11:04:49;;;;;;;0.55;0.50;;;4.20;91.50;;;;;;5030811;28;20053;-81
2022/01/08 11:07:25;;;;;;;1.10;0.65;;;4.30;90.30;;;;;;5025497;28;20037;-81
2022/01/08 11:09:56;;;;;;;0.50;0.50;;;4.40;90.20;;;;;;5042148;28;20063;-81
2022/01/08 11:12:28;;;;;;;5.03;1.25;;;4.60;90.60;;;;;;5026830;28;20025;-82
2022/01/08 11:15:12;;;;;;;0.88;0.55;;;4.80;89.20;;;;;;5046377;28;20022;-82
2022/01/08 11:17:49;;;;;;;0.80;0.60;;;4.80;88.20;;;;;;5025336;28;20021;-81
2022/01/08 11:20:21;;;;;;;1.42;0.82;;;4.80;87.90;;;;;;5045138;28;20125;-81
2022/01/08 11:22:52;;;;;;;2.60;0.75;;;4.70;87.60;;;;;;5021241;28;20040;-81
2022/01/08 11:25:35;;;;;;;2.50;0.95;;;4.60;88.40;;;;;;5047099;28;20037;-80
2022/01/08 11:28:12;;;;;;;0.70;0.70;;;4.60;88.30;;;;;;5027355;28;20033;-82
2022/01/08 11:30:42;;;;;;;0.80;0.80;;;4.60;88.30;;;;;;5026301;28;20021;-82
2022/01/08 11:33:16;;;;;;;1.65;1.38;;;4.40;86.50;;;;;;5032342;28;20104;-82
2022/01/08 11:35:44;;;;;;;1.25;0.90;;;4.20;88.30;;;;;;5046651;28;20486;-81
2022/01/08 11:38:12;;;;;;;2.55;1.15;;;3.90;88.80;;;;;;5027926;28;20033;-80
2022/01/08 11:40:41;;;;;;;1.45;1.10;;;3.80;89.90;;;;;;5043452;28;20033;-80
2022/01/08 11:43:09;;;;;;;1.23;0.90;;;3.70;90.20;;;;;;5022758;28;20227;-82
2022/01/08 11:45:40;;;;;;;2.47;1.27;;;3.70;90.40;;;;;;5026607;28;20059;-81
2022/01/08 11:48:09;;;;;;;1.42;0.90;;;3.80;90.00;;;;;;5041029;28;20381;-81
2022/01/08 11:50:35;;;;;;;0.88;0.82;;;3.90;90.40;;;;;;5023707;28;20037;-80
2022/01/08 11:53:24;;;;;;;1.63;1.02;;;3.80;88.70;;;;;;5048482;28;20021;-81
2022/01/08 11:55:57;;;;;;;1.48;0.80;;;3.70;88.50;;;;;;5028339;28;20021;-82
2022/01/08 11:58:26;;;;;;;1.50;0.93;;;3.60;88.80;;;;;;5029362;28;20018;-82
2022/01/08 12:00:57;;;;;;;1.83;1.30;;;3.70;88.30;;;;;;5040456;28;20029;-81
2022/01/08 12:03:39;;;;;;;2.20;1.30;;;3.70;88.50;;;;;;5043661;28;20032;-81
2022/01/08 12:06:33;;;;;;;1.70;1.30;;;3.80;88.80;;;;;;5021831;28;20036;-81
2022/01/08 12:09:28;;;;;;;3.35;1.45;;;3.80;88.70;;;;;;5039527;28;20025;-80
2022/01/08 12:12:04;;;;;;;2.05;1.25;;;3.70;87.80;;;;;;5026680;28;20115;-80
2022/01/08 12:14:45;;;;;;;3.22;1.00;;;3.70;89.10;;;;;;5027244;28;20025;-80
2022/01/08 12:17:18;;;;;;;2.90;1.02;;;3.70;87.30;;;;;;5027779;28;20089;-81
2022/01/08 12:19:44;;;;;;;2.85;0.80;;;3.50;87.60;;;;;;5028843;28;20053;-80
2022/01/08 12:22:16;;;;;;;0.82;0.75;;;3.30;89.20;;;;;;5030267;28;20030;-81
2022/01/08 12:24:43;;;;;;;3.22;1.00;;;3.30;90.20;;;;;;5028983;28;20021;-81
2022/01/08 12:27:46;;;;;;;2.83;1.10;;;3.20;90.50;;;;;;5049524;28;20119;-80
2022/01/08 12:30:17;;;;;;;;;;;3.10;90.30;;;;;;5040176;28;20025;-81
2022/01/08 12:32:52;;;;;;;1.30;1.20;;;3.00;90.00;;;;;;5036979;28;19944;-81
2022/01/08 12:37:46;;;;;;;4.03;1.40;;;2.90;91.10;;;;;;5038790;28;20152;-80
2022/01/08 12:40:33;;;;;;;1.65;1.15;;;3.00;91.00;;;;;;5019315;28;20551;-80
2022/01/08 12:42:58;;;;;;;1.42;1.17;;;3.10;90.40;;;;;;5019962;28;20425;-80
2022/01/08 12:45:34;;;;;;;2.03;1.40;;;3.00;90.40;;;;;;5037356;28;20029;-82
2022/01/08 12:48:00;;;;;;;2.25;1.45;;;3.00;89.80;;;;;;5018881;28;20374;-82
2022/01/08 12:50:26;;;;;;;1.67;1.15;;;2.90;90.00;;;;;;5021256;28;20037;-82
2022/01/08 12:53:28;;;;;;;1.30;1.20;;;3.00;90.00;;;;;;5045375;28;20041;-82
2022/01/08 12:55:55;;;;;;;1.55;1.13;;;3.00;89.90;;;;;;5027825;28;20026;-82
2022/01/08 12:58:29;;;;;;;4.20;1.35;;;3.00;90.10;;;;;;5021979;28;20035;-81
2022/01/08 13:01:09;;;;;;;1.10;1.00;;;3.10;90.00;;;;;;5024146;28;20053;-82
2022/01/08 13:03:35;;;;;;;1.77;1.10;;;3.30;90.20;;;;;;5052931;28;20029;-83
2022/01/08 13:06:18;;;;;;;2.08;1.10;;;3.30;89.60;;;;;;5026694;28;20162;-83
2022/01/08 13:08:46;;;;;;;2.15;0.98;;;3.30;90.00;;;;;;5042456;28;20029;-83
2022/01/08 13:11:14;;;;;;;2.90;1.02;;;3.20;89.80;;;;;;5025954;28;20036;-82
2022/01/08 13:13:43;;;;;;;1.33;1.08;;;3.00;89.70;;;;;;5036261;28;20048;-82
2022/01/08 13:16:16;;;;;;;1.25;1.10;;;2.80;90.50;;;;;;5051624;28;20025;-83
2022/01/08 13:18:51;;;;;;;0.98;0.98;;;2.60;90.90;;;;;;5039515;28;20021;-83
2022/01/08 13:21:18;;;;;;;1.35;1.00;;;2.60;91.10;;;;;;5048494;28;20105;-83
2022/01/08 13:23:48;;;;;;;1.98;1.20;;;2.50;91.30;;;;;;5044324;28;20020;-82
2022/01/08 13:26:15;;;;;;;3.30;1.65;;;2.40;91.50;;;;;;5051557;28;20022;-83